sensor_id;sensor_type;location;lat;lon;timestamp;P1;durP1;ratioP1;P2;durP2;ratioP2
75542;SDS011;64129;53.508;10.476;2023-12-20T00:00:02;7.13;;;1.90;;
75542;SDS011;64129;53.508;10.476;2023-12-20T00:02:30;9.45;;;1.90;;
75542;SDS011;64129;53.508;10.476;2023-12-20T00:04:56;8.98;;;1.83;;
75542;SDS011;64129;53.508;10.476;2023-12-20T00:07:23;9.18;;;1.77;;
75542;SDS011;64129;53.508;10.476;2023-12-20T00:09:50;10.68;;;2.10;;
75542;SDS011;64129;53.508;10.476;2023-12-20T00:12:17;10.25;;;2.08;;
75542;SDS011;64129;53.508;10.476;2023-12-20T00:14:43;6.97;;;1.33;;
75542;SDS011;64129;53.508;10.476;2023-12-20T00:17:10;5.93;;;1.20;;
75542;SDS011;64129;53.508;10.476;2023-12-20T00:19:38;13.95;;;1.77;;
75542;SDS011;64129;53.508;10.476;2023-12-20T00:22:04;8.85;;;1.23;;
75542;SDS011;64129;53.508;10.476;2023-12-20T00:24:35;8.82;;;1.85;;
75542;SDS011;64129;53.508;10.476;2023-12-20T00:27:02;5.72;;;1.40;;
75542;SDS011;64129;53.508;10.476;2023-12-20T00:29:29;6.57;;;1.20;;
75542;SDS011;64129;53.508;10.476;2023-12-20T00:34:33;9.43;;;1.23;;
75542;SDS011;64129;53.508;10.476;2023-12-20T00:37:00;7.80;;;1.20;;
75542;SDS011;64129;53.508;10.476;2023-12-20T00:39:26;6.90;;;1.85;;
75542;SDS011;64129;53.508;10.476;2023-12-20T00:41:56;11.38;;;2.20;;
75542;SDS011;64129;53.508;10.476;2023-12-20T00:44:23;6.15;;;1.25;;
75542;SDS011;64129;53.508;10.476;2023-12-20T00:51:45;9.63;;;1.00;;
75542;SDS011;64129;53.508;10.476;2023-12-20T00:54:13;6.40;;;1.45;;
75542;SDS011;64129;53.508;10.476;2023-12-20T00:56:40;12.43;;;1.40;;
75542;SDS011;64129;53.508;10.476;2023-12-20T00:59:10;7.47;;;1.30;;
75542;SDS011;64129;53.508;10.476;2023-12-20T01:01:37;7.60;;;1.08;;
75542;SDS011;64129;53.508;10.476;2023-12-20T01:04:08;11.23;;;1.70;;
75542;SDS011;64129;53.508;10.476;2023-12-20T01:06:37;11.35;;;1.40;;
75542;SDS011;64129;53.508;10.476;2023-12-20T01:09:05;6.47;;;1.02;;
75542;SDS011;64129;53.508;10.476;2023-12-20T01:11:31;9.02;;;1.35;;
75542;SDS011;64129;53.508;10.476;2023-12-20T01:13:58;9.48;;;1.33;;
75542;SDS011;64129;53.508;10.476;2023-12-20T01:16:25;7.20;;;1.05;;
75542;SDS011;64129;53.508;10.476;2023-12-20T01:18:52;8.18;;;1.27;;
75542;SDS011;64129;53.508;10.476;2023-12-20T01:21:19;9.02;;;1.85;;
75542;SDS011;64129;53.508;10.476;2023-12-20T01:23:45;7.28;;;1.17;;
75542;SDS011;64129;53.508;10.476;2023-12-20T01:26:12;9.90;;;1.13;;
75542;SDS011;64129;53.508;10.476;2023-12-20T01:28:41;8.75;;;1.52;;
75542;SDS011;64129;53.508;10.476;2023-12-20T01:31:08;11.30;;;1.55;;
75542;SDS011;64129;53.508;10.476;2023-12-20T01:33:35;11.75;;;1.55;;
75542;SDS011;64129;53.508;10.476;2023-12-20T01:36:02;6.95;;;1.25;;
75542;SDS011;64129;53.508;10.476;2023-12-20T01:38:30;4.45;;;1.25;;
75542;SDS011;64129;53.508;10.476;2023-12-20T01:40:57;8.32;;;1.67;;
75542;SDS011;64129;53.508;10.476;2023-12-20T01:43:24;7.45;;;1.30;;
75542;SDS011;64129;53.508;10.476;2023-12-20T01:45:53;6.72;;;1.20;;
75542;SDS011;64129;53.508;10.476;2023-12-20T01:48:23;3.22;;;0.70;;
75542;SDS011;64129;53.508;10.476;2023-12-20T01:50:55;11.20;;;1.45;;
75542;SDS011;64129;53.508;10.476;2023-12-20T01:53:23;4.80;;;1.15;;
75542;SDS011;64129;53.508;10.476;2023-12-20T01:55:52;6.53;;;1.10;;
75542;SDS011;64129;53.508;10.476;2023-12-20T01:58:24;6.20;;;1.17;;
75542;SDS011;64129;53.508;10.476;2023-12-20T02:00:53;7.40;;;2.15;;
75542;SDS011;64129;53.508;10.476;2023-12-20T02:03:21;5.00;;;0.75;;
75542;SDS011;64129;53.508;10.476;2023-12-20T02:05:48;10.55;;;1.50;;
75542;SDS011;64129;53.508;10.476;2023-12-20T02:08:15;5.78;;;1.17;;
75542;SDS011;64129;53.508;10.476;2023-12-20T02:10:41;9.52;;;1.38;;
75542;SDS011;64129;53.508;10.476;2023-12-20T02:13:09;10.35;;;1.40;;
75542;SDS011;64129;53.508;10.476;2023-12-20T02:15:36;3.30;;;0.98;;
75542;SDS011;64129;53.508;10.476;2023-12-20T02:18:10;4.65;;;1.10;;
75542;SDS011;64129;53.508;10.476;2023-12-20T02:20:37;7.93;;;0.95;;
75542;SDS011;64129;53.508;10.476;2023-12-20T02:23:03;7.40;;;1.40;;
75542;SDS011;64129;53.508;10.476;2023-12-20T02:25:30;7.00;;;1.50;;
75542;SDS011;64129;53.508;10.476;2023-12-20T02:27:57;6.18;;;1.30;;
75542;SDS011;64129;53.508;10.476;2023-12-20T02:30:24;6.18;;;0.93;;
75542;SDS011;64129;53.508;10.476;2023-12-20T02:32:51;7.95;;;1.25;;
75542;SDS011;64129;53.508;10.476;2023-12-20T02:35:19;5.13;;;1.30;;
75542;SDS011;64129;53.508;10.476;2023-12-20T02:37:46;6.18;;;1.10;;
75542;SDS011;64129;53.508;10.476;2023-12-20T02:40:12;11.50;;;1.13;;
75542;SDS011;64129;53.508;10.476;2023-12-20T02:42:39;9.07;;;1.00;;
75542;SDS011;64129;53.508;10.476;2023-12-20T02:45:06;12.07;;;1.85;;
75542;SDS011;64129;53.508;10.476;2023-12-20T02:47:33;5.85;;;1.55;;
75542;SDS011;64129;53.508;10.476;2023-12-20T02:50:00;5.80;;;1.17;;
75542;SDS011;64129;53.508;10.476;2023-12-20T02:52:28;12.02;;;1.73;;
75542;SDS011;64129;53.508;10.476;2023-12-20T02:54:55;7.88;;;1.10;;
75542;SDS011;64129;53.508;10.476;2023-12-20T02:57:28;8.77;;;1.83;;
75542;SDS011;64129;53.508;10.476;2023-12-20T02:59:56;13.82;;;1.88;;
75542;SDS011;64129;53.508;10.476;2023-12-20T03:02:23;6.55;;;1.20;;
75542;SDS011;64129;53.508;10.476;2023-12-20T03:04:49;9.70;;;1.45;;
75542;SDS011;64129;53.508;10.476;2023-12-20T03:07:16;7.43;;;1.50;;
75542;SDS011;64129;53.508;10.476;2023-12-20T03:09:43;9.10;;;1.90;;
75542;SDS011;64129;53.508;10.476;2023-12-20T03:12:12;5.38;;;1.58;;
75542;SDS011;64129;53.508;10.476;2023-12-20T03:17:11;14.52;;;2.03;;
75542;SDS011;64129;53.508;10.476;2023-12-20T03:19:38;7.05;;;1.27;;
75542;SDS011;64129;53.508;10.476;2023-12-20T03:22:04;8.70;;;1.40;;
75542;SDS011;64129;53.508;10.476;2023-12-20T03:24:32;6.72;;;1.83;;
75542;SDS011;64129;53.508;10.476;2023-12-20T03:26:59;8.77;;;2.38;;
75542;SDS011;64129;53.508;10.476;2023-12-20T03:29:29;8.98;;;1.40;;
75542;SDS011;64129;53.508;10.476;2023-12-20T03:31:55;7.82;;;1.73;;
75542;SDS011;64129;53.508;10.476;2023-12-20T03:34:22;7.68;;;1.13;;
75542;SDS011;64129;53.508;10.476;2023-12-20T03:36:49;5.50;;;1.50;;
75542;SDS011;64129;53.508;10.476;2023-12-20T03:39:16;3.47;;;1.00;;
75542;SDS011;64129;53.508;10.476;2023-12-20T03:41:47;7.00;;;1.45;;
75542;SDS011;64129;53.508;10.476;2023-12-20T03:44:14;7.18;;;1.40;;
75542;SDS011;64129;53.508;10.476;2023-12-20T03:46:43;7.03;;;1.73;;
75542;SDS011;64129;53.508;10.476;2023-12-20T03:49:12;6.03;;;1.70;;
75542;SDS011;64129;53.508;10.476;2023-12-20T03:51:38;7.80;;;3.00;;
75542;SDS011;64129;53.508;10.476;2023-12-20T03:54:05;6.20;;;1.13;;
75542;SDS011;64129;53.508;10.476;2023-12-20T03:56:32;6.93;;;1.30;;
75542;SDS011;64129;53.508;10.476;2023-12-20T03:58:59;6.03;;;1.75;;
75542;SDS011;64129;53.508;10.476;2023-12-20T04:01:27;11.02;;;2.13;;
75542;SDS011;64129;53.508;10.476;2023-12-20T04:03:54;6.15;;;1.70;;
75542;SDS011;64129;53.508;10.476;2023-12-20T04:06:21;4.30;;;1.40;;
75542;SDS011;64129;53.508;10.476;2023-12-20T04:08:48;10.85;;;2.00;;
75542;SDS011;64129;53.508;10.476;2023-12-20T04:11:14;5.75;;;1.70;;
75542;SDS011;64129;53.508;10.476;2023-12-20T04:13:41;3.72;;;1.88;;
75542;SDS011;64129;53.508;10.476;2023-12-20T04:16:08;6.90;;;1.75;;
75542;SDS011;64129;53.508;10.476;2023-12-20T04:18:35;7.38;;;1.80;;
75542;SDS011;64129;53.508;10.476;2023-12-20T04:21:03;6.68;;;1.60;;
75542;SDS011;64129;53.508;10.476;2023-12-20T04:23:31;6.15;;;1.52;;
75542;SDS011;64129;53.508;10.476;2023-12-20T04:25:58;5.78;;;1.08;;
75542;SDS011;64129;53.508;10.476;2023-12-20T04:28:26;2.08;;;0.90;;
75542;SDS011;64129;53.508;10.476;2023-12-20T04:30:53;10.27;;;2.10;;
75542;SDS011;64129;53.508;10.476;2023-12-20T04:33:25;7.10;;;1.55;;
75542;SDS011;64129;53.508;10.476;2023-12-20T04:35:55;7.50;;;1.42;;
75542;SDS011;64129;53.508;10.476;2023-12-20T04:38:22;3.72;;;1.58;;
75542;SDS011;64129;53.508;10.476;2023-12-20T04:40:51;12.02;;;2.30;;
75542;SDS011;64129;53.508;10.476;2023-12-20T04:43:18;11.40;;;2.67;;
75542;SDS011;64129;53.508;10.476;2023-12-20T04:45:45;6.35;;;2.70;;
75542;SDS011;64129;53.508;10.476;2023-12-20T04:48:12;5.95;;;1.42;;
75542;SDS011;64129;53.508;10.476;2023-12-20T04:50:41;10.25;;;2.47;;
75542;SDS011;64129;53.508;10.476;2023-12-20T04:53:10;5.78;;;2.28;;
75542;SDS011;64129;53.508;10.476;2023-12-20T04:55:39;5.03;;;2.17;;
75542;SDS011;64129;53.508;10.476;2023-12-20T04:58:10;6.20;;;2.83;;
75542;SDS011;64129;53.508;10.476;2023-12-20T05:00:37;4.68;;;2.17;;
75542;SDS011;64129;53.508;10.476;2023-12-20T05:03:04;7.55;;;2.35;;
75542;SDS011;64129;53.508;10.476;2023-12-20T05:05:38;10.52;;;3.03;;
75542;SDS011;64129;53.508;10.476;2023-12-20T05:08:11;7.05;;;2.65;;
75542;SDS011;64129;53.508;10.476;2023-12-20T05:10:38;4.40;;;2.63;;
75542;SDS011;64129;53.508;10.476;2023-12-20T05:13:08;12.95;;;3.40;;
75542;SDS011;64129;53.508;10.476;2023-12-20T05:15:34;7.85;;;2.63;;
75542;SDS011;64129;53.508;10.476;2023-12-20T05:18:01;7.47;;;2.90;;
75542;SDS011;64129;53.508;10.476;2023-12-20T05:20:28;8.18;;;2.72;;
75542;SDS011;64129;53.508;10.476;2023-12-20T05:22:55;8.40;;;2.10;;
75542;SDS011;64129;53.508;10.476;2023-12-20T05:25:22;8.13;;;3.35;;
75542;SDS011;64129;53.508;10.476;2023-12-20T05:27:51;9.63;;;2.92;;
75542;SDS011;64129;53.508;10.476;2023-12-20T05:30:18;7.75;;;3.05;;
75542;SDS011;64129;53.508;10.476;2023-12-20T05:32:45;8.20;;;2.90;;
75542;SDS011;64129;53.508;10.476;2023-12-20T05:35:12;11.32;;;3.38;;
75542;SDS011;64129;53.508;10.476;2023-12-20T05:37:39;9.23;;;2.92;;
75542;SDS011;64129;53.508;10.476;2023-12-20T05:40:06;11.27;;;3.50;;
75542;SDS011;64129;53.508;10.476;2023-12-20T05:42:37;11.55;;;3.20;;
75542;SDS011;64129;53.508;10.476;2023-12-20T05:45:04;11.82;;;3.70;;
75542;SDS011;64129;53.508;10.476;2023-12-20T05:47:32;10.45;;;3.13;;
75542;SDS011;64129;53.508;10.476;2023-12-20T05:49:59;12.02;;;3.70;;
75542;SDS011;64129;53.508;10.476;2023-12-20T05:52:28;10.55;;;4.13;;
75542;SDS011;64129;53.508;10.476;2023-12-20T05:54:57;7.70;;;2.35;;
75542;SDS011;64129;53.508;10.476;2023-12-20T05:57:30;6.30;;;2.83;;
75542;SDS011;64129;53.508;10.476;2023-12-20T05:59:57;7.93;;;2.63;;
75542;SDS011;64129;53.508;10.476;2023-12-20T06:02:24;10.35;;;3.22;;
75542;SDS011;64129;53.508;10.476;2023-12-20T06:04:53;6.60;;;2.55;;
75542;SDS011;64129;53.508;10.476;2023-12-20T06:07:23;7.90;;;3.80;;
75542;SDS011;64129;53.508;10.476;2023-12-20T06:09:52;7.47;;;3.45;;
75542;SDS011;64129;53.508;10.476;2023-12-20T06:12:19;8.52;;;3.65;;
75542;SDS011;64129;53.508;10.476;2023-12-20T06:14:45;5.47;;;3.35;;
75542;SDS011;64129;53.508;10.476;2023-12-20T06:17:12;9.88;;;3.40;;
75542;SDS011;64129;53.508;10.476;2023-12-20T06:19:42;8.43;;;2.83;;
75542;SDS011;64129;53.508;10.476;2023-12-20T06:22:11;9.18;;;3.63;;
75542;SDS011;64129;53.508;10.476;2023-12-20T06:24:38;5.35;;;2.25;;
75542;SDS011;64129;53.508;10.476;2023-12-20T06:27:05;14.25;;;3.85;;
75542;SDS011;64129;53.508;10.476;2023-12-20T06:29:31;5.68;;;2.75;;
75542;SDS011;64129;53.508;10.476;2023-12-20T06:31:58;6.70;;;2.70;;
75542;SDS011;64129;53.508;10.476;2023-12-20T06:34:26;8.50;;;3.00;;
75542;SDS011;64129;53.508;10.476;2023-12-20T06:36:52;7.20;;;2.92;;
75542;SDS011;64129;53.508;10.476;2023-12-20T06:39:22;8.45;;;2.78;;
75542;SDS011;64129;53.508;10.476;2023-12-20T06:41:48;4.47;;;2.05;;
75542;SDS011;64129;53.508;10.476;2023-12-20T06:44:15;5.15;;;2.08;;
75542;SDS011;64129;53.508;10.476;2023-12-20T06:46:42;10.05;;;2.53;;
75542;SDS011;64129;53.508;10.476;2023-12-20T06:49:14;5.70;;;2.60;;
75542;SDS011;64129;53.508;10.476;2023-12-20T06:51:42;8.52;;;2.17;;
75542;SDS011;64129;53.508;10.476;2023-12-20T06:54:10;8.40;;;3.30;;
75542;SDS011;64129;53.508;10.476;2023-12-20T06:56:36;9.52;;;1.98;;
75542;SDS011;64129;53.508;10.476;2023-12-20T06:59:03;6.32;;;2.25;;
75542;SDS011;64129;53.508;10.476;2023-12-20T07:01:30;9.15;;;2.53;;
75542;SDS011;64129;53.508;10.476;2023-12-20T07:03:57;6.88;;;2.28;;
75542;SDS011;64129;53.508;10.476;2023-12-20T07:06:24;7.15;;;2.58;;
75542;SDS011;64129;53.508;10.476;2023-12-20T07:08:53;9.77;;;3.45;;
75542;SDS011;64129;53.508;10.476;2023-12-20T07:11:23;9.00;;;3.30;;
75542;SDS011;64129;53.508;10.476;2023-12-20T07:13:50;12.90;;;3.60;;
75542;SDS011;64129;53.508;10.476;2023-12-20T07:16:23;7.00;;;2.95;;
75542;SDS011;64129;53.508;10.476;2023-12-20T07:18:51;8.00;;;1.98;;
75542;SDS011;64129;53.508;10.476;2023-12-20T07:21:19;7.75;;;1.80;;
75542;SDS011;64129;53.508;10.476;2023-12-20T07:23:47;3.63;;;1.58;;
75542;SDS011;64129;53.508;10.476;2023-12-20T07:26:14;6.35;;;1.95;;
75542;SDS011;64129;53.508;10.476;2023-12-20T07:28:42;11.23;;;2.20;;
75542;SDS011;64129;53.508;10.476;2023-12-20T07:31:08;8.68;;;2.17;;
75542;SDS011;64129;53.508;10.476;2023-12-20T07:33:37;3.33;;;1.67;;
75542;SDS011;64129;53.508;10.476;2023-12-20T07:36:04;10.35;;;2.78;;
75542;SDS011;64129;53.508;10.476;2023-12-20T07:38:31;7.30;;;2.38;;
75542;SDS011;64129;53.508;10.476;2023-12-20T07:43:35;6.30;;;2.25;;
75542;SDS011;64129;53.508;10.476;2023-12-20T07:46:06;11.80;;;2.45;;
75542;SDS011;64129;53.508;10.476;2023-12-20T07:48:35;6.43;;;2.55;;
75542;SDS011;64129;53.508;10.476;2023-12-20T07:51:02;6.53;;;3.08;;
75542;SDS011;64129;53.508;10.476;2023-12-20T07:53:33;5.78;;;3.10;;
75542;SDS011;64129;53.508;10.476;2023-12-20T07:56:01;9.07;;;2.97;;
75542;SDS011;64129;53.508;10.476;2023-12-20T07:58:28;9.98;;;3.25;;
75542;SDS011;64129;53.508;10.476;2023-12-20T08:01:02;12.50;;;3.20;;
75542;SDS011;64129;53.508;10.476;2023-12-20T08:03:29;7.40;;;2.95;;
75542;SDS011;64129;53.508;10.476;2023-12-20T08:05:56;8.07;;;3.35;;
75542;SDS011;64129;53.508;10.476;2023-12-20T08:08:26;11.95;;;3.35;;
75542;SDS011;64129;53.508;10.476;2023-12-20T08:10:53;12.00;;;2.67;;
75542;SDS011;64129;53.508;10.476;2023-12-20T08:13:19;9.98;;;2.08;;
75542;SDS011;64129;53.508;10.476;2023-12-20T08:15:51;9.60;;;2.85;;
75542;SDS011;64129;53.508;10.476;2023-12-20T08:18:18;4.70;;;1.92;;
75542;SDS011;64129;53.508;10.476;2023-12-20T08:20:45;10.07;;;2.03;;
75542;SDS011;64129;53.508;10.476;2023-12-20T08:23:13;8.15;;;1.90;;
75542;SDS011;64129;53.508;10.476;2023-12-20T08:25:42;8.05;;;2.83;;
75542;SDS011;64129;53.508;10.476;2023-12-20T08:28:09;18.20;;;3.63;;
75542;SDS011;64129;53.508;10.476;2023-12-20T08:30:35;9.52;;;2.72;;
75542;SDS011;64129;53.508;10.476;2023-12-20T08:33:08;14.32;;;2.85;;
75542;SDS011;64129;53.508;10.476;2023-12-20T08:38:06;9.30;;;2.85;;
75542;SDS011;64129;53.508;10.476;2023-12-20T08:40:33;5.38;;;1.77;;
75542;SDS011;64129;53.508;10.476;2023-12-20T08:43:03;5.13;;;2.55;;
75542;SDS011;64129;53.508;10.476;2023-12-20T08:45:36;7.72;;;2.40;;
75542;SDS011;64129;53.508;10.476;2023-12-20T08:48:05;9.30;;;2.85;;
75542;SDS011;64129;53.508;10.476;2023-12-20T08:50:34;5.70;;;2.15;;
75542;SDS011;64129;53.508;10.476;2023-12-20T08:53:01;6.68;;;2.55;;
75542;SDS011;64129;53.508;10.476;2023-12-20T08:55:28;4.85;;;1.05;;
75542;SDS011;64129;53.508;10.476;2023-12-20T08:57:59;6.85;;;3.42;;
75542;SDS011;64129;53.508;10.476;2023-12-20T09:00:26;8.27;;;2.45;;
75542;SDS011;64129;53.508;10.476;2023-12-20T09:02:54;9.13;;;2.88;;
75542;SDS011;64129;53.508;10.476;2023-12-20T09:05:23;8.07;;;2.22;;
75542;SDS011;64129;53.508;10.476;2023-12-20T09:07:50;5.38;;;1.65;;
75542;SDS011;64129;53.508;10.476;2023-12-20T09:10:25;10.85;;;3.08;;
75542;SDS011;64129;53.508;10.476;2023-12-20T09:12:52;10.68;;;2.10;;
75542;SDS011;64129;53.508;10.476;2023-12-20T09:15:24;9.70;;;2.83;;
75542;SDS011;64129;53.508;10.476;2023-12-20T09:20:21;8.60;;;2.22;;
75542;SDS011;64129;53.508;10.476;2023-12-20T09:22:49;10.13;;;2.45;;
75542;SDS011;64129;53.508;10.476;2023-12-20T09:25:18;13.68;;;2.33;;
75542;SDS011;64129;53.508;10.476;2023-12-20T09:27:52;7.45;;;2.17;;
75542;SDS011;64129;53.508;10.476;2023-12-20T09:30:19;11.90;;;2.45;;
75542;SDS011;64129;53.508;10.476;2023-12-20T09:32:47;6.47;;;1.77;;
75542;SDS011;64129;53.508;10.476;2023-12-20T09:35:13;9.43;;;2.17;;
75542;SDS011;64129;53.508;10.476;2023-12-20T09:37:41;7.00;;;2.33;;
75542;SDS011;64129;53.508;10.476;2023-12-20T09:40:12;4.10;;;1.83;;
75542;SDS011;64129;53.508;10.476;2023-12-20T09:42:47;6.53;;;1.50;;
75542;SDS011;64129;53.508;10.476;2023-12-20T09:45:17;2.90;;;1.08;;
75542;SDS011;64129;53.508;10.476;2023-12-20T09:47:47;1.63;;;0.80;;
75542;SDS011;64129;53.508;10.476;2023-12-20T09:50:17;5.13;;;0.85;;
75542;SDS011;64129;53.508;10.476;2023-12-20T09:52:46;3.05;;;0.95;;
75542;SDS011;64129;53.508;10.476;2023-12-20T09:55:18;2.83;;;1.13;;
75542;SDS011;64129;53.508;10.476;2023-12-20T09:57:46;1.45;;;0.32;;
75542;SDS011;64129;53.508;10.476;2023-12-20T10:00:14;2.25;;;0.52;;
75542;SDS011;64129;53.508;10.476;2023-12-20T10:02:56;1.30;;;0.47;;
75542;SDS011;64129;53.508;10.476;2023-12-20T10:05:33;1.92;;;0.40;;
75542;SDS011;64129;53.508;10.476;2023-12-20T10:08:00;1.00;;;0.63;;
75542;SDS011;64129;53.508;10.476;2023-12-20T10:10:28;0.70;;;0.30;;
75542;SDS011;64129;53.508;10.476;2023-12-20T10:13:07;2.78;;;0.50;;
75542;SDS011;64129;53.508;10.476;2023-12-20T10:15:36;1.08;;;0.38;;
75542;SDS011;64129;53.508;10.476;2023-12-20T10:18:07;1.35;;;0.45;;
75542;SDS011;64129;53.508;10.476;2023-12-20T10:20:34;3.30;;;0.55;;
75542;SDS011;64129;53.508;10.476;2023-12-20T10:23:03;4.03;;;0.82;;
75542;SDS011;64129;53.508;10.476;2023-12-20T10:25:30;1.50;;;0.50;;
75542;SDS011;64129;53.508;10.476;2023-12-20T10:28:13;1.20;;;0.65;;
75542;SDS011;64129;53.508;10.476;2023-12-20T10:30:43;4.97;;;0.60;;
75542;SDS011;64129;53.508;10.476;2023-12-20T10:33:13;1.05;;;0.52;;
75542;SDS011;64129;53.508;10.476;2023-12-20T10:35:50;2.47;;;0.60;;
75542;SDS011;64129;53.508;10.476;2023-12-20T10:38:17;1.52;;;0.47;;
75542;SDS011;64129;53.508;10.476;2023-12-20T10:40:44;1.25;;;0.40;;
75542;SDS011;64129;53.508;10.476;2023-12-20T10:43:12;1.95;;;0.38;;
75542;SDS011;64129;53.508;10.476;2023-12-20T10:45:41;1.65;;;0.43;;
75542;SDS011;64129;53.508;10.476;2023-12-20T10:48:12;1.70;;;0.50;;
75542;SDS011;64129;53.508;10.476;2023-12-20T10:50:42;3.33;;;1.02;;
75542;SDS011;64129;53.508;10.476;2023-12-20T10:53:10;1.20;;;0.50;;
75542;SDS011;64129;53.508;10.476;2023-12-20T10:55:39;2.20;;;0.52;;
75542;SDS011;64129;53.508;10.476;2023-12-20T10:58:07;3.97;;;0.75;;
75542;SDS011;64129;53.508;10.476;2023-12-20T11:00:39;0.50;;;0.30;;
75542;SDS011;64129;53.508;10.476;2023-12-20T11:03:11;2.67;;;1.10;;
75542;SDS011;64129;53.508;10.476;2023-12-20T11:08:32;4.03;;;0.55;;
75542;SDS011;64129;53.508;10.476;2023-12-20T11:11:23;2.30;;;0.60;;
75542;SDS011;64129;53.508;10.476;2023-12-20T11:13:58;4.68;;;1.23;;
75542;SDS011;64129;53.508;10.476;2023-12-20T11:16:33;4.53;;;0.70;;
75542;SDS011;64129;53.508;10.476;2023-12-20T11:19:06;3.38;;;0.60;;
75542;SDS011;64129;53.508;10.476;2023-12-20T11:21:36;2.75;;;0.60;;
75542;SDS011;64129;53.508;10.476;2023-12-20T11:24:03;2.78;;;0.50;;
75542;SDS011;64129;53.508;10.476;2023-12-20T11:26:31;2.25;;;0.68;;
75542;SDS011;64129;53.508;10.476;2023-12-20T11:32:03;3.75;;;0.70;;
75542;SDS011;64129;53.508;10.476;2023-12-20T11:34:50;3.30;;;0.77;;
75542;SDS011;64129;53.508;10.476;2023-12-20T11:37:22;3.80;;;1.15;;
75542;SDS011;64129;53.508;10.476;2023-12-20T11:40:11;5.03;;;0.75;;
75542;SDS011;64129;53.508;10.476;2023-12-20T11:45:13;2.90;;;0.82;;
75542;SDS011;64129;53.508;10.476;2023-12-20T11:47:42;1.80;;;0.60;;
75542;SDS011;64129;53.508;10.476;2023-12-20T11:50:13;6.20;;;1.02;;
75542;SDS011;64129;53.508;10.476;2023-12-20T11:52:40;3.00;;;1.00;;
75542;SDS011;64129;53.508;10.476;2023-12-20T11:55:07;2.72;;;0.70;;
75542;SDS011;64129;53.508;10.476;2023-12-20T11:57:35;2.28;;;0.28;;
75542;SDS011;64129;53.508;10.476;2023-12-20T12:00:03;2.72;;;0.50;;
75542;SDS011;64129;53.508;10.476;2023-12-20T12:02:38;3.80;;;0.40;;
75542;SDS011;64129;53.508;10.476;2023-12-20T12:05:05;2.20;;;0.50;;
75542;SDS011;64129;53.508;10.476;2023-12-20T12:07:33;2.28;;;0.60;;
75542;SDS011;64129;53.508;10.476;2023-12-20T12:10:01;4.45;;;1.00;;
75542;SDS011;64129;53.508;10.476;2023-12-20T12:12:30;3.10;;;0.73;;
75542;SDS011;64129;53.508;10.476;2023-12-20T12:15:00;1.25;;;0.50;;
75542;SDS011;64129;53.508;10.476;2023-12-20T12:17:27;2.35;;;0.75;;
75542;SDS011;64129;53.508;10.476;2023-12-20T12:20:01;3.17;;;0.65;;
75542;SDS011;64129;53.508;10.476;2023-12-20T12:22:30;1.92;;;0.88;;
75542;SDS011;64129;53.508;10.476;2023-12-20T12:25:09;4.43;;;1.48;;
75542;SDS011;64129;53.508;10.476;2023-12-20T12:27:41;2.97;;;0.82;;
75542;SDS011;64129;53.508;10.476;2023-12-20T12:30:08;2.83;;;1.02;;
75542;SDS011;64129;53.508;10.476;2023-12-20T12:32:36;5.03;;;1.05;;
75542;SDS011;64129;53.508;10.476;2023-12-20T12:35:03;9.00;;;1.60;;
75542;SDS011;64129;53.508;10.476;2023-12-20T12:37:37;7.65;;;1.10;;
75542;SDS011;64129;53.508;10.476;2023-12-20T12:40:12;7.20;;;1.27;;
75542;SDS011;64129;53.508;10.476;2023-12-20T12:42:43;5.38;;;1.13;;
75542;SDS011;64129;53.508;10.476;2023-12-20T12:45:11;5.95;;;1.30;;
75542;SDS011;64129;53.508;10.476;2023-12-20T12:47:39;5.70;;;1.35;;
75542;SDS011;64129;53.508;10.476;2023-12-20T12:50:06;6.07;;;1.30;;
75542;SDS011;64129;53.508;10.476;2023-12-20T12:52:33;5.25;;;1.30;;
75542;SDS011;64129;53.508;10.476;2023-12-20T12:55:01;7.38;;;1.40;;
75542;SDS011;64129;53.508;10.476;2023-12-20T12:57:32;2.22;;;0.93;;
75542;SDS011;64129;53.508;10.476;2023-12-20T13:00:00;5.30;;;1.30;;
75542;SDS011;64129;53.508;10.476;2023-12-20T13:02:27;6.63;;;1.25;;
75542;SDS011;64129;53.508;10.476;2023-12-20T13:04:55;5.57;;;1.50;;
75542;SDS011;64129;53.508;10.476;2023-12-20T13:07:22;3.78;;;1.35;;
75542;SDS011;64129;53.508;10.476;2023-12-20T13:09:54;6.50;;;1.50;;
75542;SDS011;64129;53.508;10.476;2023-12-20T13:12:22;8.80;;;1.80;;
75542;SDS011;64129;53.508;10.476;2023-12-20T13:14:48;7.35;;;1.55;;
75542;SDS011;64129;53.508;10.476;2023-12-20T13:17:17;11.02;;;1.50;;
75542;SDS011;64129;53.508;10.476;2023-12-20T13:19:45;7.10;;;1.55;;
75542;SDS011;64129;53.508;10.476;2023-12-20T13:22:11;5.53;;;1.33;;
75542;SDS011;64129;53.508;10.476;2023-12-20T13:24:38;9.63;;;1.30;;
75542;SDS011;64129;53.508;10.476;2023-12-20T13:27:05;5.53;;;1.05;;
75542;SDS011;64129;53.508;10.476;2023-12-20T13:29:32;10.55;;;1.40;;
75542;SDS011;64129;53.508;10.476;2023-12-20T13:31:59;10.18;;;1.90;;
75542;SDS011;64129;53.508;10.476;2023-12-20T13:34:25;10.55;;;1.50;;
75542;SDS011;64129;53.508;10.476;2023-12-20T13:36:52;5.60;;;1.40;;
75542;SDS011;64129;53.508;10.476;2023-12-20T13:41:47;10.95;;;1.98;;
75542;SDS011;64129;53.508;10.476;2023-12-20T13:44:14;8.98;;;1.63;;
75542;SDS011;64129;53.508;10.476;2023-12-20T13:46:41;3.92;;;1.70;;
75542;SDS011;64129;53.508;10.476;2023-12-20T13:49:10;11.60;;;1.92;;
75542;SDS011;64129;53.508;10.476;2023-12-20T13:51:37;6.90;;;1.35;;
75542;SDS011;64129;53.508;10.476;2023-12-20T13:54:03;8.95;;;1.98;;
75542;SDS011;64129;53.508;10.476;2023-12-20T13:56:30;5.97;;;1.65;;
75542;SDS011;64129;53.508;10.476;2023-12-20T13:58:57;8.05;;;1.67;;
75542;SDS011;64129;53.508;10.476;2023-12-20T14:01:24;6.57;;;1.52;;
75542;SDS011;64129;53.508;10.476;2023-12-20T14:03:52;3.42;;;1.33;;
75542;SDS011;64129;53.508;10.476;2023-12-20T14:06:21;8.70;;;1.45;;
75542;SDS011;64129;53.508;10.476;2023-12-20T14:08:50;13.75;;;2.33;;
75542;SDS011;64129;53.508;10.476;2023-12-20T14:11:16;9.98;;;1.63;;
75542;SDS011;64129;53.508;10.476;2023-12-20T14:13:44;8.77;;;1.92;;
75542;SDS011;64129;53.508;10.476;2023-12-20T14:16:14;4.93;;;1.52;;
75542;SDS011;64129;53.508;10.476;2023-12-20T14:18:41;15.75;;;2.30;;
75542;SDS011;64129;53.508;10.476;2023-12-20T14:21:08;10.45;;;2.17;;
75542;SDS011;64129;53.508;10.476;2023-12-20T14:23:38;11.50;;;2.88;;
75542;SDS011;64129;53.508;10.476;2023-12-20T14:26:04;5.50;;;1.63;;
75542;SDS011;64129;53.508;10.476;2023-12-20T14:28:31;10.98;;;2.10;;
75542;SDS011;64129;53.508;10.476;2023-12-20T14:30:58;11.27;;;2.40;;
75542;SDS011;64129;53.508;10.476;2023-12-20T14:33:25;14.70;;;2.50;;
75542;SDS011;64129;53.508;10.476;2023-12-20T14:35:52;8.18;;;2.22;;
75542;SDS011;64129;53.508;10.476;2023-12-20T14:38:19;11.23;;;2.42;;
75542;SDS011;64129;53.508;10.476;2023-12-20T14:40:47;12.38;;;3.08;;
75542;SDS011;64129;53.508;10.476;2023-12-20T14:43:14;7.85;;;2.33;;
75542;SDS011;64129;53.508;10.476;2023-12-20T14:45:42;10.82;;;2.20;;
75542;SDS011;64129;53.508;10.476;2023-12-20T14:48:09;13.93;;;2.80;;
75542;SDS011;64129;53.508;10.476;2023-12-20T14:50:39;14.20;;;2.90;;
75542;SDS011;64129;53.508;10.476;2023-12-20T14:53:09;7.55;;;1.80;;
75542;SDS011;64129;53.508;10.476;2023-12-20T14:55:37;9.88;;;2.55;;
75542;SDS011;64129;53.508;10.476;2023-12-20T14:58:04;9.80;;;3.90;;
75542;SDS011;64129;53.508;10.476;2023-12-20T15:00:31;12.50;;;2.72;;
75542;SDS011;64129;53.508;10.476;2023-12-20T15:05:26;15.38;;;2.35;;
75542;SDS011;64129;53.508;10.476;2023-12-20T15:07:55;8.05;;;2.33;;